createdAt,value
2023-01-17T00:04:06.609Z,100272.19
2023-01-17T00:09:47.696Z,100273.44
2023-01-17T00:15:16.409Z,100261.03
2023-01-17T00:20:58.180Z,100282.78
2023-01-17T00:26:27.347Z,100273.44
2023-01-17T00:31:49.658Z,100282.84
2023-01-17T00:37:11.477Z,100286.44
2023-01-17T00:42:33.317Z,100264.78
2023-01-17T00:48:13.428Z,100267.34
2023-01-17T00:53:53.860Z,100279.81
2023-01-17T00:59:34.320Z,100279.38
2023-01-17T01:05:14.697Z,100280.19
2023-01-17T01:10:55.088Z,100282.03
2023-01-17T01:16:36.462Z,100265.16
2023-01-17T01:22:17.369Z,100269.63
2023-01-17T01:27:58.408Z,100274.88
2023-01-17T01:33:20.948Z,100267.34
2023-01-17T01:38:43.736Z,100266.28
2023-01-17T01:44:06.160Z,100228.94
2023-01-17T01:49:30.102Z,100254.91
2023-01-17T01:54:58.662Z,100272.78
2023-01-17T02:00:26.441Z,100275.63
2023-01-17T02:05:48.883Z,100252.38
2023-01-17T02:11:11.948Z,100247.69
2023-01-17T02:16:51.039Z,100275.97
2023-01-17T02:22:18.856Z,100281.03
2023-01-17T02:28:05.204Z,100273.72
2023-01-17T02:33:40.512Z,100273.44
2023-01-17T02:39:13.566Z,100269.41
2023-01-17T02:44:45.830Z,100256.78
2023-01-17T02:50:13.342Z,100252.28
2023-01-17T02:56:05.660Z,100268.13
2023-01-17T03:01:38.997Z,100260.09
2023-01-17T03:07:09.546Z,100244.31
2023-01-17T03:12:37.122Z,100267.69
2023-01-17T03:18:11.668Z,100251.03
2023-01-17T03:23:37.492Z,100262.81
2023-01-17T03:29:00.218Z,100236.34
2023-01-17T03:34:22.992Z,100247.75
2023-01-17T03:39:45.462Z,100237.16
2023-01-17T03:45:08.106Z,100256.22
2023-01-17T03:50:30.206Z,100261.94
2023-01-17T03:55:52.571Z,100270.84
2023-01-17T04:01:14.598Z,100277.50
2023-01-17T04:06:36.922Z,100283.72
2023-01-17T04:11:59.060Z,100282.75
2023-01-17T04:17:21.684Z,100286.13
2023-01-17T04:22:45.185Z,100280.44
2023-01-17T04:28:22.966Z,100293.38
2023-01-17T04:34:05.521Z,100295.66
2023-01-17T04:39:28.074Z,100289.75
2023-01-17T04:44:50.520Z,100293.38
2023-01-17T04:50:13.328Z,100279.22
2023-01-17T04:55:38.707Z,100262.28
2023-01-17T05:01:08.979Z,100293.97
2023-01-17T05:06:31.172Z,100296.28
2023-01-17T05:11:53.587Z,100301.56
2023-01-17T05:17:16.992Z,100302.72
2023-01-17T05:22:38.980Z,100300.28
2023-01-17T05:28:05.886Z,100271.84
2023-01-17T05:33:28.272Z,100286.16
2023-01-17T05:38:50.540Z,100312.59
2023-01-17T05:44:12.653Z,100307.72
2023-01-17T05:49:35.051Z,100303.19
2023-01-17T05:54:57.888Z,100305.81
2023-01-17T06:00:20.218Z,100320.06
2023-01-17T06:05:43.484Z,100306.75
2023-01-17T06:11:05.960Z,100306.28
2023-01-17T06:16:28.455Z,100313.81
2023-01-17T06:21:50.935Z,100313.47
2023-01-17T06:33:12.299Z,100308.75
2023-01-17T06:38:36.639Z,100310.75
2023-01-17T06:44:01.539Z,100283.56
2023-01-17T06:49:24.080Z,100310.28
2023-01-17T06:54:46.480Z,100331.03
2023-01-17T07:00:09.909Z,100302.59
2023-01-17T07:05:36.257Z,100327.50
2023-01-17T07:11:05.366Z,100310.00
2023-01-17T07:16:27.842Z,100336.47
2023-01-17T07:21:54.813Z,100323.88
2023-01-17T07:27:17.793Z,100306.13
2023-01-17T07:32:43.231Z,100285.00
2023-01-17T07:38:12.144Z,100344.81
2023-01-17T07:43:36.187Z,100326.31
2023-01-17T07:49:01.211Z,100325.13
2023-01-17T07:54:23.422Z,100336.13
2023-01-17T07:59:46.048Z,100345.25
2023-01-17T08:05:09.550Z,100320.16
2023-01-17T08:10:31.939Z,100309.19
2023-01-17T08:15:55.099Z,100329.75
2023-01-17T08:21:20.347Z,100314.91
2023-01-17T08:26:43.000Z,100336.47
2023-01-17T08:32:05.368Z,100334.03
2023-01-17T08:37:27.596Z,100339.91
2023-01-17T08:42:57.819Z,100334.03
2023-01-17T08:48:20.074Z,100345.25
2023-01-17T08:53:42.507Z,100335.84
2023-01-17T08:59:05.031Z,100330.78
2023-01-17T09:04:27.581Z,100310.78
2023-01-17T09:09:53.549Z,100320.13
2023-01-17T09:15:18.568Z,100315.88
2023-01-17T09:20:41.061Z,100332.84
2023-01-17T09:26:03.594Z,100319.41
2023-01-17T09:49:21.545Z,100331.38
2023-01-17T09:54:48.000Z,100332.38
2023-01-17T10:00:37.282Z,100345.19
2023-01-17T10:06:20.740Z,100349.19
2023-01-17T10:11:52.240Z,100346.63
2023-01-17T10:17:39.822Z,100329.13
2023-01-17T10:23:18.779Z,100329.41
2023-01-17T10:28:49.576Z,100317.50
2023-01-17T10:34:38.417Z,100317.78
2023-01-17T10:40:14.799Z,100332.06
2023-01-17T10:45:43.967Z,100330.06
2023-01-17T10:51:35.268Z,100320.56
2023-01-17T10:56:59.201Z,100318.09
2023-01-17T11:02:26.713Z,100329.97
2023-01-17T11:08:09.390Z,100330.97
2023-01-17T11:13:34.957Z,100333.44
2023-01-17T11:19:35.990Z,100312.03
2023-01-17T11:25:00.633Z,100320.72
2023-01-17T11:30:26.740Z,100326.88
2023-01-17T11:35:49.080Z,100335.50
2023-01-17T11:41:20.811Z,100328.25
2023-01-17T11:46:43.499Z,100332.91
2023-01-17T11:52:30.272Z,100342.22
2023-01-17T11:57:52.513Z,100329.94
2023-01-17T12:03:33.677Z,100337.69
2023-01-17T12:09:23.440Z,100345.88
2023-01-17T12:15:06.872Z,100341.25
2023-01-17T12:20:45.280Z,100331.44
2023-01-17T12:26:26.531Z,100326.94
2023-01-17T12:32:12.659Z,100321.47
2023-01-17T12:37:42.289Z,100344.50
2023-01-17T12:43:15.100Z,100343.31
2023-01-17T12:48:39.782Z,100352.75
2023-01-17T12:54:04.874Z,100355.28
2023-01-17T12:59:32.973Z,100345.28
2023-01-17T13:05:06.654Z,100358.09
2023-01-17T13:10:35.925Z,100324.38
2023-01-17T13:16:05.833Z,100333.34
2023-01-17T13:21:35.976Z,100337.41
2023-01-17T13:27:27.121Z,100343.31
2023-01-17T13:33:07.873Z,100338.41
2023-01-17T13:39:20.812Z,100337.41
2023-01-17T13:44:45.929Z,100317.94
2023-01-17T13:50:39.753Z,100348.47
2023-01-17T13:56:20.685Z,100352.09
2023-01-17T14:02:25.629Z,100343.38
2023-01-17T14:07:58.260Z,100348.53
2023-01-17T14:13:37.350Z,100364.78
2023-01-17T14:18:59.417Z,100374.00
2023-01-17T14:24:21.976Z,100353.03
2023-01-17T14:29:47.231Z,100370.44
2023-01-17T14:35:24.117Z,100369.00
2023-01-17T14:40:55.952Z,100362.91
2023-01-17T14:46:31.660Z,100373.97
2023-01-17T14:52:04.340Z,100365.06
2023-01-17T14:57:29.193Z,100355.59
2023-01-17T15:02:53.861Z,100361.97
2023-01-17T15:08:19.280Z,100365.25
2023-01-17T15:13:47.951Z,100370.94
2023-01-17T15:19:15.128Z,100368.50
2023-01-17T15:24:42.369Z,100368.63
2023-01-17T15:30:06.988Z,100361.84
2023-01-17T15:35:30.188Z,100372.88
2023-01-17T15:40:52.540Z,100360.09
2023-01-17T15:46:23.573Z,100363.22
2023-01-17T15:52:15.767Z,100367.72
2023-01-17T15:57:39.336Z,100379.50
2023-01-17T16:03:01.307Z,100371.22
2023-01-17T16:08:25.076Z,100363.94
2023-01-17T16:13:49.023Z,100360.78
2023-01-17T16:19:11.130Z,100357.59
2023-01-17T16:24:32.999Z,100353.94
2023-01-17T16:29:56.446Z,100346.19
2023-01-17T16:35:33.005Z,100344.44
2023-01-17T16:40:58.752Z,100357.47
2023-01-17T16:46:21.641Z,100358.09
2023-01-17T16:51:48.287Z,100352.66
2023-01-17T16:57:12.973Z,100354.31
2023-01-17T17:02:43.538Z,100363.53
2023-01-17T17:08:08.061Z,100354.97
2023-01-17T17:13:34.757Z,100348.06
2023-01-17T17:19:02.199Z,100346.91
2023-01-17T17:24:24.600Z,100366.25
2023-01-17T17:29:47.054Z,100358.97
2023-01-17T17:35:09.792Z,100347.38
2023-01-17T17:40:31.535Z,100342.28
2023-01-17T17:45:53.567Z,100333.97
2023-01-17T17:51:30.749Z,100348.81
2023-01-17T17:56:52.690Z,100337.63
2023-01-17T18:02:14.691Z,100332.75
2023-01-17T18:07:36.547Z,100334.59
2023-01-17T18:13:03.176Z,100320.19
2023-01-17T18:18:25.417Z,100331.16
2023-01-17T18:23:55.928Z,100336.88
2023-01-17T18:29:23.030Z,100325.47
2023-01-17T18:34:45.654Z,100351.50
2023-01-17T18:40:08.026Z,100327.09
2023-01-17T18:45:30.136Z,100316.38
2023-01-17T18:51:00.178Z,100319.22
2023-01-17T18:56:30.340Z,100306.81
2023-01-17T19:01:52.861Z,100328.97
2023-01-17T19:07:15.547Z,100323.03
2023-01-17T19:12:37.870Z,100314.09
2023-01-17T19:18:00.348Z,100327.91
2023-01-17T19:23:23.808Z,100349.06
2023-01-17T19:28:49.506Z,100348.06
2023-01-17T19:34:14.453Z,100339.31
2023-01-17T19:39:36.583Z,100339.53
2023-01-17T19:45:00.935Z,100338.50
2023-01-17T19:50:23.577Z,100323.06
2023-01-17T19:55:47.534Z,100325.53
2023-01-17T20:01:18.363Z,100333.47
2023-01-17T20:06:41.057Z,100336.13
2023-01-17T20:12:06.612Z,100319.25
2023-01-17T20:17:34.594Z,100324.53
2023-01-17T20:22:57.389Z,100327.59
2023-01-17T20:28:19.428Z,100302.59
2023-01-17T20:33:42.449Z,100335.13
2023-01-17T20:39:06.312Z,100339.84
2023-01-17T20:44:28.243Z,100339.03
2023-01-17T20:49:49.807Z,100349.59
2023-01-17T20:55:11.927Z,100344.91
2023-01-17T21:00:38.328Z,100334.56
2023-01-17T21:06:05.596Z,100333.75
2023-01-17T21:11:31.288Z,100316.25
2023-01-17T21:16:53.207Z,100323.19
2023-01-17T21:22:17.291Z,100305.91
2023-01-17T21:27:42.227Z,100316.66
2023-01-17T21:33:08.120Z,100299.59
2023-01-17T21:38:35.483Z,100294.31
2023-01-17T21:44:36.891Z,100300.81
2023-01-17T21:50:02.204Z,100313.84
2023-01-17T21:55:48.472Z,100310.97
2023-01-17T22:01:23.089Z,100308.75
2023-01-17T22:06:45.548Z,100321.97
2023-01-17T22:12:08.019Z,100307.34
2023-01-17T22:17:31.217Z,100297.59
2023-01-17T22:22:53.576Z,100311.81
2023-01-17T22:28:17.801Z,100313.03
2023-01-17T22:33:46.740Z,100315.06
2023-01-17T22:39:14.020Z,100305.69
2023-01-17T22:44:38.800Z,100297.38
2023-01-17T22:50:04.989Z,100303.69
2023-01-17T22:55:27.227Z,100326.66
2023-01-17T23:00:50.190Z,100323.78
2023-01-17T23:06:16.019Z,100302.06
2023-01-17T23:11:46.780Z,100311.81
2023-01-17T23:17:28.259Z,100318.31
2023-01-17T23:22:56.649Z,100316.88
2023-01-17T23:28:55.430Z,100322.19
2023-01-17T23:34:17.959Z,100324.81
2023-01-17T23:39:40.509Z,100313.84
2023-01-17T23:45:02.641Z,100306.31
2023-01-17T23:50:24.727Z,100331.72
2023-01-17T23:55:47.360Z,100317.50
